Terminal Aerodrome Forecast
Issued by NWS Bismarck, ND

Home | Current Version | Previous Version | Text Only | Print | Product List | Glossary Off
Versions: 1 2 3 4 5 6 7 8 9 10 11 12 13 14 15 16

000
FTUS43 KBIS 231000 AAA
TAFISN
TAF AMD
KISN 231021Z 2310/2406 12018G30KT P6SM VCSH SCT050 BKN100
      TEMPO 2310/2313 -SHRA BKN080
     FM231300 14016G23KT P6SM SCT030 OVC090
     FM231800 21017G26KT P6SM -SHRA SCT025 OVC045
     FM232300 27018G26KT P6SM SCT030 OVC070
     FM240200 26014KT P6SM SCT060 SCT110=

USA.gov is the U.S. government's official web portal to all federal, state and local government web resources and services.